Observations for CARDIFF-WALES ARPT, United Kingdom (EGFF)

EGFF 202020Z AUTO 16007KT 130V190 9999 BKN032 OVC047 10/07 Q1019
EGFF 201950Z AUTO 18007KT 150V210 9999 FEW024 BKN038 10/07 Q1019
EGFF 201920Z AUTO 20010KT 160V230 9999 SCT023 BKN034 10/07 Q1019
EGFF 201850Z AUTO 19008KT 9999 BKN022 OVC034 10/07 Q1019
EGFF 201820Z AUTO 19008KT 9999 OVC023 09/07 Q1019   
EGFF 201750Z AUTO 19007KT 9999 OVC023 09/07 Q1018   
EGFF 201720Z AUTO 18007KT 9999 BKN025 OVC031 09/07 Q1018
EGFF 201650Z AUTO 18007KT 9999 BKN025 OVC029 09/07 Q1018
EGFF 201620Z AUTO 18007KT 9999 BKN027 09/07 Q1018   
EGFF 201550Z AUTO 19008KT 9999 BKN025 OVC030 10/07 Q1018
EGFF 201520Z AUTO 20006KT 170V240 9999 BKN027 OVC035 10/07 Q1018
EGFF 201450Z AUTO 21006KT 9999 BKN028 OVC033 10/07 Q1018
EGFF 201420Z AUTO 21006KT 9999 SCT036 11/07 Q1018   
EGFF 201350Z AUTO 21007KT 9999 -RA NCD 10/07 Q1018  
EGFF 201320Z AUTO 22006KT 180V250 9999 BKN032/// //////TCU 11/06 Q1018  
EGFF 201250Z AUTO 21008KT 170V240 9999 BKN038 11/06 Q1018   
EGFF 201220Z AUTO 20007KT 170V240 9999 BKN029 BKN037 11/06 Q1018
EGFF 201150Z AUTO 21012KT 9999 NCD 11/06 Q1018  
EGFF 201120Z AUTO 21010KT 9999 SCT033 11/06 Q1018   
EGFF 201050Z AUTO 21009KT 9999 BKN031 11/06 Q1018   
EGFF 201020Z AUTO 21007KT 170V250 9999 NCD 10/06 Q1018  
EGFF 200950Z AUTO 19004KT 120V220 9999 SCT027 BKN035 10/06 Q1017
EGFF 200920Z AUTO 21008KT 9999 BKN026 09/06 Q1017   
EGFF 200850Z AUTO 21008KT 9999 FEW028 09/06 Q1017   
EGFF 200820Z AUTO 21005KT 9999 FEW027 09/06 Q1017   
EGFF 200750Z AUTO 22006KT 170V250 9999 SCT025 09/06 Q1016   
EGFF 200720Z AUTO 22004KT 180V260 9999 BKN026 09/06 Q1016   
EGFF 200650Z AUTO 21007KT 9999 NCD 09/05 Q1016  
EGFF 200620Z AUTO 21006KT 9999 NCD 09/05 Q1016  
EGFF 200550Z AUTO 21006KT 9999 //////TCU 09/05 Q1016
EGFF 200520Z AUTO 21004KT 180V250 9999 NCD 09/05 Q1016  
EGFF 200450Z AUTO 22008KT 9999 FEW030 08/05 Q1016   
EGFF 200420Z AUTO 21007KT 9999 NCD 08/05 Q1016  
EGFF 200350Z AUTO 20004KT 9999 NCD 08/05 Q1016  
EGFF 200320Z AUTO 19004KT 9999 NCD 08/05 Q1016  
EGFF 200250Z AUTO 19006KT 9999 NCD 08/05 Q1016  
EGFF 200220Z AUTO 20008KT 160V220 9999 NCD 09/05 Q1016  
EGFF 200150Z AUTO 21008KT 9999 FEW033 09/05 Q1017   
EGFF 200120Z AUTO 20006KT 9999 FEW028 08/05 Q1017   
EGFF 200050Z AUTO 19005KT 9999 BKN028 08/05 Q1017   
EGFF 200020Z AUTO 18004KT 9999 -RA FEW030 08/05 Q1017   
EGFF 192350Z AUTO 18006KT 9999 SCT028 08/05 Q1017   
EGFF 192320Z AUTO 19005KT 9999 NCD 08/05 Q1017  
EGFF 192250Z AUTO 21006KT 9999 NCD 08/05 Q1017  
EGFF 192220Z AUTO 20006KT 9999 NCD 08/05 Q1017  
EGFF 192150Z AUTO 21007KT 9999 FEW030 08/05 Q1017   
EGFF 192120Z AUTO 22008KT 9999 FEW030 08/05 Q1017   
EGFF 192050Z AUTO 22009KT 9999 SCT032 09/05 Q1017   
EGFF 192020Z AUTO 21008KT 9999 FEW031 09/05 Q1017   
EGFF 191950Z AUTO 21008KT 9999 FEW032 08/05 Q1017